Time;durP1;ratioP1;P1;durP2;ratioP2;P2;SDS_P1;SDS_P2;PMS_P1;PMS_P2;Temp;Humidity;BMP_temperature;BMP_pressure;BME280_temperature;BME280_humidity;BME280_pressure;Samples;Min_cycle;Max_cycle;Signal;HPM_P1;HPM_P2
2021/05/04 00:01:45;;;;;;;18.57;16.67;;;6.90;84.00;;;;;;5053713;28;20175;-83
2021/05/04 00:04:11;;;;;;;18.13;15.53;;;6.90;84.60;;;;;;5053859;28;20202;-84
2021/05/04 00:06:36;;;;;;;18.37;15.00;;;7.00;84.10;;;;;;5053499;28;20657;-84
2021/05/04 00:09:03;;;;;;;16.50;14.13;;;7.10;83.90;;;;;;5053511;28;20591;-84
2021/05/04 00:11:28;;;;;;;15.17;13.17;;;7.10;83.80;;;;;;5053673;28;20178;-83
2021/05/04 00:13:54;;;;;;;16.17;14.67;;;7.00;83.50;;;;;;5053265;28;20187;-84
2021/05/04 00:16:20;;;;;;;15.80;13.63;;;7.20;83.30;;;;;;5053317;28;20179;-84
2021/05/04 00:18:45;;;;;;;14.43;13.03;;;7.20;82.70;;;;;;5053470;28;20676;-84
2021/05/04 00:21:11;;;;;;;14.67;12.80;;;7.20;82.70;;;;;;5053551;28;20371;-84
2021/05/04 00:23:37;;;;;;;14.30;12.60;;;7.20;82.20;;;;;;5051746;28;20219;-84
2021/05/04 00:26:02;;;;;;;14.77;12.13;;;7.30;82.20;;;;;;5053248;28;20672;-84
2021/05/04 00:28:30;;;;;;;13.27;11.80;;;7.20;82.00;;;;;;5051887;28;20226;-84
2021/05/04 00:30:56;;;;;;;12.50;11.20;;;7.30;81.90;;;;;;5051903;28;20258;-84
2021/05/04 00:33:21;;;;;;;13.03;11.70;;;7.30;81.10;;;;;;5051755;28;20191;-84
2021/05/04 00:35:48;;;;;;;13.70;12.40;;;7.30;81.30;;;;;;5051745;28;20650;-84
2021/05/04 00:38:14;;;;;;;12.67;11.37;;;7.30;81.40;;;;;;5053789;28;20187;-84
2021/05/04 00:40:40;;;;;;;12.97;11.60;;;7.30;81.00;;;;;;5055816;28;20171;-84
2021/05/04 00:43:05;;;;;;;12.73;11.43;;;7.30;81.20;;;;;;5057138;28;20560;-84
2021/05/04 00:45:31;;;;;;;11.40;10.20;;;7.30;81.60;;;;;;5055817;28;20700;-84
2021/05/04 00:47:56;;;;;;;14.13;12.77;;;7.30;81.00;;;;;;5056959;28;20210;-84
2021/05/04 00:50:22;;;;;;;12.83;11.13;;;7.30;81.70;;;;;;5057056;28;20274;-84
2021/05/04 00:52:48;;;;;;;13.70;11.60;;;7.30;81.50;;;;;;5057201;28;20249;-84
2021/05/04 00:55:14;;;;;;;12.87;11.50;;;7.30;81.40;;;;;;5056945;28;20262;-84
2021/05/04 00:57:42;;;;;;;12.57;9.97;;;7.30;80.90;;;;;;5055681;28;20671;-84
2021/05/04 01:00:11;;;;;;;17.53;11.33;;;7.40;80.20;;;;;;5055710;28;20527;-84
2021/05/04 01:02:39;;;;;;;10.77;9.67;;;7.40;80.00;;;;;;5056716;28;20191;-84
2021/05/04 01:05:06;;;;;;;11.30;10.23;;;7.50;79.60;;;;;;5055271;28;20230;-84
2021/05/04 01:07:31;;;;;;;12.37;10.50;;;7.50;79.60;;;;;;5057150;28;20672;-84
2021/05/04 01:09:57;;;;;;;11.00;9.97;;;7.50;79.20;;;;;;5056810;28;20172;-84
2021/05/04 01:12:23;;;;;;;12.23;10.93;;;7.50;79.50;;;;;;5055805;28;20183;-84
2021/05/04 01:14:48;;;;;;;12.90;11.27;;;7.40;79.80;;;;;;5055247;28;20253;-84
2021/05/04 01:17:14;;;;;;;13.17;10.67;;;7.40;80.20;;;;;;5056790;28;20202;-84
2021/05/04 01:19:40;;;;;;;11.73;10.53;;;7.40;80.40;;;;;;5055079;28;20229;-84
2021/05/04 01:22:06;;;;;;;11.50;10.40;;;7.40;80.50;;;;;;5056411;28;20179;-84
2021/05/04 01:24:32;;;;;;;12.40;11.10;;;7.40;80.70;;;;;;5056098;28;20215;-84
2021/05/04 01:26:58;;;;;;;11.63;10.43;;;7.30;81.00;;;;;;5056191;28;20207;-85
2021/05/04 01:29:25;;;;;;;12.43;11.13;;;7.30;81.40;;;;;;5056231;28;20221;-84
2021/05/04 01:31:51;;;;;;;11.47;10.27;;;7.30;81.90;;;;;;5056245;28;20250;-84
2021/05/04 01:34:17;;;;;;;11.87;10.67;;;7.30;82.50;;;;;;5054788;28;20284;-84
2021/05/04 01:36:42;;;;;;;12.43;10.63;;;7.30;82.90;;;;;;5055940;28;20187;-84
2021/05/04 01:39:10;;;;;;;11.53;10.43;;;7.30;82.80;;;;;;5055013;28;20210;-84
2021/05/04 01:41:36;;;;;;;11.60;10.40;;;7.20;82.70;;;;;;5054707;28;20260;-84
2021/05/04 01:44:03;;;;;;;11.50;10.30;;;7.20;82.50;;;;;;5056065;28;20208;-84
2021/05/04 01:46:32;;;;;;;11.73;10.53;;;7.20;82.70;;;;;;5055634;28;20203;-84
2021/05/04 01:49:03;;;;;;;11.73;10.50;;;7.20;82.40;;;;;;5055584;28;20176;-84
2021/05/04 01:51:29;;;;;;;10.17;9.17;;;7.30;81.90;;;;;;5055988;28;20246;-84
2021/05/04 01:53:56;;;;;;;11.77;9.63;;;7.30;81.90;;;;;;5055846;28;20286;-84
2021/05/04 01:56:23;;;;;;;14.23;10.53;;;7.20;81.50;;;;;;5054556;28;20179;-84
2021/05/04 01:58:49;;;;;;;12.17;10.90;;;7.20;81.30;;;;;;5055783;28;20246;-84
2021/05/04 02:01:15;;;;;;;13.73;10.33;;;7.20;81.70;;;;;;5055755;28;20187;-84
2021/05/04 02:03:41;;;;;;;11.93;10.47;;;7.20;82.00;;;;;;5055763;28;20199;-84
2021/05/04 02:06:06;;;;;;;12.40;11.00;;;7.20;82.40;;;;;;5055582;28;20225;-84
2021/05/04 02:08:33;;;;;;;11.90;10.63;;;7.10;83.00;;;;;;5054177;28;20649;-84
2021/05/04 02:10:59;;;;;;;13.93;10.70;;;7.10;83.40;;;;;;5055446;28;20172;-84
2021/05/04 02:13:24;;;;;;;10.43;9.37;;;7.10;83.60;;;;;;5055309;28;20192;-84
2021/05/04 02:15:51;;;;;;;12.27;9.67;;;7.20;82.80;;;;;;5054175;28;20180;-84
2021/05/04 02:18:17;;;;;;;12.57;9.57;;;7.10;83.50;;;;;;5055186;28;20183;-84
2021/05/04 02:20:42;;;;;;;10.33;9.33;;;7.10;83.70;;;;;;5053868;28;20187;-84
2021/05/04 02:23:08;;;;;;;13.13;9.63;;;7.00;83.90;;;;;;5054846;28;20262;-84
2021/05/04 02:25:34;;;;;;;11.23;10.13;;;7.00;84.20;;;;;;5053784;28;20594;-84
2021/05/04 02:28:00;;;;;;;12.00;10.73;;;7.10;84.20;;;;;;5055002;28;20234;-84
2021/05/04 02:30:25;;;;;;;10.50;9.50;;;7.10;84.10;;;;;;5055020;28;20652;-84
2021/05/04 02:32:51;;;;;;;11.30;10.20;;;7.10;84.30;;;;;;5054983;28;20196;-84
2021/05/04 02:35:16;;;;;;;10.00;9.03;;;7.10;84.00;;;;;;5054838;28;20206;-84
2021/05/04 02:37:42;;;;;;;12.77;10.33;;;7.20;84.40;;;;;;5053623;28;20657;-83
2021/05/04 02:40:08;;;;;;;13.03;9.60;;;7.20;84.30;;;;;;5054929;28;20214;-84
2021/05/04 02:42:34;;;;;;;12.10;10.17;;;7.10;84.60;;;;;;5054695;28;20195;-84
2021/05/04 02:44:59;;;;;;;11.83;9.93;;;7.10;84.80;;;;;;5054657;28;20190;-84
2021/05/04 02:47:25;;;;;;;12.83;10.37;;;7.10;84.90;;;;;;5053303;28;20238;-84
2021/05/04 02:49:51;;;;;;;11.27;9.53;;;7.20;84.60;;;;;;5053350;28;20179;-84
2021/05/04 02:52:16;;;;;;;10.20;9.20;;;7.10;84.50;;;;;;5053308;28;20552;-84
2021/05/04 02:54:42;;;;;;;12.37;8.77;;;7.20;84.10;;;;;;5053220;28;20234;-84
2021/05/04 02:57:08;;;;;;;10.80;9.17;;;7.30;83.70;;;;;;5054393;28;20180;-84
2021/05/04 02:59:33;;;;;;;10.23;8.93;;;7.20;83.80;;;;;;5053016;28;20573;-84
2021/05/04 03:02:00;;;;;;;10.33;8.57;;;7.20;83.60;;;;;;5053866;28;20675;-84
2021/05/04 03:04:26;;;;;;;8.77;7.83;;;7.30;83.20;;;;;;5054172;28;20199;-84
2021/05/04 03:06:51;;;;;;;9.80;8.87;;;7.30;83.00;;;;;;5054224;28;20199;-84
2021/05/04 03:09:17;;;;;;;10.17;8.40;;;7.30;82.80;;;;;;5053066;28;20189;-84
2021/05/04 03:11:42;;;;;;;9.57;8.27;;;7.30;82.70;;;;;;5054050;28;20656;-84
2021/05/04 03:14:08;;;;;;;9.93;8.90;;;7.30;83.10;;;;;;5052803;28;20386;-84
2021/05/04 03:16:34;;;;;;;8.73;7.93;;;7.30;83.30;;;;;;5052923;28;20226;-84
2021/05/04 03:18:59;;;;;;;10.20;8.23;;;7.20;83.10;;;;;;5052853;28;20645;-84
2021/05/04 03:21:25;;;;;;;12.10;8.70;;;7.30;82.50;;;;;;5052661;28;20194;-84
2021/05/04 03:23:52;;;;;;;12.60;8.40;;;7.30;82.50;;;;;;5052507;28;20314;-84
2021/05/04 03:26:18;;;;;;;8.73;7.93;;;7.30;82.30;;;;;;5052589;28;20580;-84
2021/05/04 03:28:43;;;;;;;7.57;6.73;;;7.30;81.50;;;;;;5054116;28;20258;-84
2021/05/04 03:31:09;;;;;;;8.47;6.87;;;7.40;81.40;;;;;;5054350;28;20201;-84
2021/05/04 03:33:35;;;;;;;10.03;7.10;;;7.60;80.10;;;;;;5053665;28;20191;-84
2021/05/04 03:36:00;;;;;;;8.93;6.43;;;7.50;80.10;;;;;;5052417;28;20205;-84
2021/05/04 03:38:26;;;;;;;8.37;6.93;;;7.50;80.30;;;;;;5053706;28;20213;-84
2021/05/04 03:40:52;;;;;;;7.10;6.37;;;7.60;80.20;;;;;;5053737;28;20177;-84
2021/05/04 03:43:17;;;;;;;8.17;6.97;;;7.60;80.10;;;;;;5052169;28;20229;-83
2021/05/04 03:45:43;;;;;;;6.47;5.10;;;7.60;80.30;;;;;;5053823;28;20253;-84
2021/05/04 03:48:09;;;;;;;6.03;5.40;;;7.70;79.50;;;;;;5053511;28;20199;-84
2021/05/04 03:50:34;;;;;;;8.37;6.70;;;7.70;79.50;;;;;;5053632;28;20183;-84
2021/05/04 03:53:01;;;;;;;5.43;4.77;;;7.80;79.70;;;;;;5052200;28;20203;-84
2021/05/04 03:55:27;;;;;;;6.63;5.20;;;7.80;79.40;;;;;;5052073;28;20549;-84
2021/05/04 03:57:53;;;;;;;7.97;5.43;;;7.80;79.40;;;;;;5052094;28;20191;-83
2021/05/04 04:00:19;;;;;;;5.83;4.23;;;7.80;79.50;;;;;;5053271;28;20183;-84
2021/05/04 04:02:45;;;;;;;5.67;4.77;;;8.00;77.50;;;;;;5052006;28;20620;-84
2021/05/04 04:05:12;;;;;;;3.93;3.53;;;8.10;77.60;;;;;;5053285;28;20180;-84
2021/05/04 04:07:38;;;;;;;6.73;3.73;;;8.20;76.70;;;;;;5051897;28;20281;-84
2021/05/04 04:10:04;;;;;;;4.63;4.23;;;8.30;76.20;;;;;;5053367;28;20581;-84
2021/05/04 04:12:30;;;;;;;4.73;3.23;;;8.30;76.70;;;;;;5053184;28;20179;-84
2021/05/04 04:14:56;;;;;;;4.60;3.80;;;8.40;75.90;;;;;;5051969;28;20233;-84
2021/05/04 04:17:22;;;;;;;5.47;4.73;;;8.40;75.80;;;;;;5053175;28;20207;-84
2021/05/04 04:19:48;;;;;;;4.53;4.10;;;8.30;76.80;;;;;;5053278;28;20214;-84
2021/05/04 04:22:14;;;;;;;6.03;4.80;;;8.30;76.80;;;;;;5053114;28;20704;-84
2021/05/04 04:24:39;;;;;;;8.93;4.73;;;8.20;78.10;;;;;;5052988;28;20417;-84
2021/05/04 04:27:05;;;;;;;5.07;4.37;;;8.10;78.50;;;;;;5053318;28;20198;-84
2021/05/04 04:29:32;;;;;;;9.13;4.87;;;8.20;77.80;;;;;;5051762;28;20267;-84
2021/05/04 04:31:58;;;;;;;6.53;4.30;;;8.30;78.10;;;;;;5051572;28;20715;-84
2021/05/04 04:34:24;;;;;;;5.83;4.70;;;8.30;78.10;;;;;;5053070;28;20188;-84
2021/05/04 04:36:49;;;;;;;5.23;3.63;;;8.30;78.40;;;;;;5051819;28;20188;-84
2021/05/04 04:39:15;;;;;;;6.53;3.97;;;8.30;78.60;;;;;;5051654;28;20216;-84
2021/05/04 04:41:41;;;;;;;4.33;3.93;;;8.30;79.80;;;;;;5052854;28;20182;-84
2021/05/04 04:44:07;;;;;;;7.13;5.07;;;8.20;80.60;;;;;;5052848;28;20301;-84
2021/05/04 04:46:44;;;;;;;5.43;4.57;;;8.20;81.10;;;;;;5051542;28;20211;-84
2021/05/04 04:49:12;;;;;;;5.13;3.93;;;8.20;81.60;;;;;;5051843;28;20179;-84
2021/05/04 04:51:38;;;;;;;10.57;5.43;;;8.10;82.10;;;;;;5052765;28;20172;-84
2021/05/04 04:54:04;;;;;;;4.40;3.33;;;8.10;82.40;;;;;;5052815;28;20215;-84
2021/05/04 04:56:31;;;;;;;5.00;4.50;;;8.10;82.20;;;;;;5052826;28;20226;-84
2021/05/04 04:58:57;;;;;;;4.40;3.70;;;8.10;82.80;;;;;;5053268;28;20195;-84
2021/05/04 05:01:23;;;;;;;8.07;4.30;;;8.20;82.80;;;;;;5051616;28;20647;-83
2021/05/04 05:03:48;;;;;;;5.83;4.87;;;8.10;83.20;;;;;;5053052;28;20205;-84
2021/05/04 05:06:14;;;;;;;3.63;3.17;;;8.00;83.60;;;;;;5052806;28;20683;-84
2021/05/04 05:08:39;;;;;;;6.17;5.37;;;8.00;84.10;;;;;;5052832;28;20171;-84
2021/05/04 05:11:05;;;;;;;7.00;5.77;;;7.90;84.50;;;;;;5052626;28;20172;-84
2021/05/04 05:13:31;;;;;;;10.20;5.67;;;7.90;85.30;;;;;;5052574;28;20214;-84
2021/05/04 05:15:56;;;;;;;7.60;5.40;;;7.90;85.30;;;;;;5051203;28;20237;-84
2021/05/04 05:18:22;;;;;;;6.20;5.60;;;7.90;85.50;;;;;;5052570;28;20179;-84
2021/05/04 05:20:48;;;;;;;6.40;5.60;;;7.90;85.50;;;;;;5052781;28;20176;-84
2021/05/04 05:23:14;;;;;;;4.63;3.83;;;7.90;85.70;;;;;;5051214;28;20265;-84
2021/05/04 05:25:40;;;;;;;5.93;5.30;;;7.90;85.30;;;;;;5056246;28;20179;-84
2021/05/04 05:28:06;;;;;;;4.77;3.70;;;7.90;85.00;;;;;;5055451;28;20224;-84
2021/05/04 05:30:32;;;;;;;10.13;5.53;;;7.90;85.60;;;;;;5056939;28;20202;-84
2021/05/04 05:32:58;;;;;;;8.90;5.47;;;7.90;85.60;;;;;;5056014;28;20618;-84
2021/05/04 05:35:24;;;;;;;7.63;5.40;;;7.80;85.90;;;;;;5054796;28;20207;-84
2021/05/04 05:37:50;;;;;;;5.87;4.90;;;7.80;86.40;;;;;;5054670;28;20187;-84
2021/05/04 05:40:16;;;;;;;9.03;4.83;;;7.80;86.80;;;;;;5056262;28;20259;-84
2021/05/04 05:42:41;;;;;;;7.73;5.13;;;7.80;86.80;;;;;;5056128;28;20671;-84
2021/05/04 05:45:07;;;;;;;7.27;5.63;;;7.80;87.30;;;;;;5055817;28;20714;-84
2021/05/04 05:47:33;;;;;;;6.37;5.77;;;7.80;87.50;;;;;;5055659;28;20293;-84
2021/05/04 05:49:59;;;;;;;7.63;5.97;;;7.70;87.60;;;;;;5054320;28;20270;-83
2021/05/04 05:52:24;;;;;;;9.00;5.87;;;7.80;88.00;;;;;;5055814;28;20271;-83
2021/05/04 05:54:50;;;;;;;6.93;6.23;;;7.80;87.90;;;;;;5054269;28;20262;-83
2021/05/04 05:57:15;;;;;;;7.33;5.37;;;7.80;88.10;;;;;;5055831;28;20647;-83
2021/05/04 05:59:41;;;;;;;6.07;5.47;;;7.80;87.80;;;;;;5055585;28;20184;-83
2021/05/04 06:02:07;;;;;;;8.03;5.17;;;7.80;87.60;;;;;;5055506;28;20187;-83
2021/05/04 06:04:33;;;;;;;8.80;5.27;;;7.90;87.40;;;;;;5055506;28;20324;-83
2021/05/04 06:06:58;;;;;;;7.27;6.20;;;7.90;87.10;;;;;;5053986;28;20211;-83
2021/05/04 06:09:24;;;;;;;7.67;4.70;;;7.90;87.00;;;;;;5055265;28;20182;-83
2021/05/04 06:11:49;;;;;;;6.10;5.03;;;8.00;86.60;;;;;;5053892;28;20175;-83
2021/05/04 06:14:16;;;;;;;5.57;5.07;;;8.00;86.90;;;;;;5053743;28;20200;-83
2021/05/04 06:16:42;;;;;;;5.97;4.93;;;8.10;86.40;;;;;;5053917;28;20741;-83
2021/05/04 06:19:08;;;;;;;6.43;5.10;;;8.00;86.50;;;;;;5055215;28;20187;-83
2021/05/04 06:21:34;;;;;;;5.93;4.83;;;8.00;86.60;;;;;;5055302;28;20234;-83
2021/05/04 06:23:59;;;;;;;5.57;5.03;;;8.10;86.20;;;;;;5055000;28;20226;-83
2021/05/04 06:26:25;;;;;;;3.87;3.47;;;8.20;85.80;;;;;;5054873;28;20225;-83
2021/05/04 06:28:51;;;;;;;7.37;3.10;;;8.20;84.90;;;;;;5053607;28;20259;-83
2021/05/04 06:31:18;;;;;;;7.70;3.63;;;8.20;85.80;;;;;;5053696;28;20664;-83
2021/05/04 06:33:44;;;;;;;9.40;4.17;;;8.20;85.70;;;;;;5054892;28;20288;-83
2021/05/04 06:36:11;;;;;;;3.30;2.73;;;8.20;85.00;;;;;;5052429;28;20183;-83
2021/05/04 06:38:36;;;;;;;6.00;4.30;;;8.20;85.10;;;;;;5054769;28;20256;-83
2021/05/04 06:41:03;;;;;;;3.73;3.40;;;8.20;85.50;;;;;;5053407;28;20618;-84
2021/05/04 06:43:28;;;;;;;5.53;3.87;;;8.30;85.60;;;;;;5054537;28;20680;-83
2021/05/04 06:45:54;;;;;;;2.53;2.20;;;8.30;85.10;;;;;;5054586;28;20176;-83
2021/05/04 06:48:20;;;;;;;3.13;2.10;;;8.40;84.90;;;;;;5054485;28;20214;-83
2021/05/04 06:50:46;;;;;;;8.90;3.60;;;8.50;83.80;;;;;;5054561;28;20179;-83
2021/05/04 06:53:12;;;;;;;4.37;3.63;;;8.50;84.40;;;;;;5053182;28;20554;-83
2021/05/04 06:55:37;;;;;;;7.63;3.57;;;8.50;84.40;;;;;;5053105;28;20179;-83
2021/05/04 06:58:03;;;;;;;8.03;2.90;;;8.50;84.70;;;;;;5053036;28;20180;-83
2021/05/04 07:00:29;;;;;;;2.70;2.50;;;8.70;84.60;;;;;;5052961;28;20645;-83
2021/05/04 07:02:55;;;;;;;3.40;3.00;;;8.70;84.30;;;;;;5054491;28;20325;-83
2021/05/04 07:05:21;;;;;;;6.93;2.70;;;8.70;84.30;;;;;;5052946;28;20271;-83
2021/05/04 07:07:47;;;;;;;5.13;3.30;;;8.80;83.30;;;;;;5054308;28;20191;-83
2021/05/04 07:10:13;;;;;;;3.03;2.70;;;8.80;83.50;;;;;;5054289;28;20168;-83
2021/05/04 07:12:39;;;;;;;4.20;3.30;;;8.80;83.50;;;;;;5052745;28;20192;-83
2021/05/04 07:15:05;;;;;;;2.50;2.30;;;8.80;83.10;;;;;;5054505;28;20194;-83
2021/05/04 07:17:31;;;;;;;7.70;3.63;;;8.80;83.60;;;;;;5052776;28;20180;-83
2021/05/04 07:19:57;;;;;;;2.20;2.00;;;8.80;83.40;;;;;;5054453;28;20255;-83
2021/05/04 07:22:25;;;;;;;2.87;2.67;;;8.80;82.70;;;;;;5054053;28;20249;-82
2021/05/04 07:24:51;;;;;;;4.87;2.37;;;8.80;83.30;;;;;;5053941;28;20171;-82
2021/05/04 07:27:17;;;;;;;4.97;2.23;;;8.80;83.40;;;;;;5053827;28;20217;-82
2021/05/04 07:29:42;;;;;;;6.93;3.33;;;8.80;82.70;;;;;;5053828;28;20218;-82
2021/05/04 07:32:08;;;;;;;6.00;3.07;;;8.80;83.20;;;;;;5054053;28;20176;-82
2021/05/04 07:34:33;;;;;;;2.90;2.63;;;8.90;83.20;;;;;;5053766;28;20275;-82
2021/05/04 07:36:59;;;;;;;2.27;2.07;;;8.90;82.70;;;;;;5053735;28;20253;-82
2021/05/04 07:39:25;;;;;;;6.07;2.60;;;8.90;82.60;;;;;;5053658;28;20641;-82
2021/05/04 07:41:50;;;;;;;2.73;2.47;;;8.90;82.70;;;;;;5054109;28;20180;-82
2021/05/04 07:44:16;;;;;;;3.20;2.00;;;9.00;82.20;;;;;;5053597;28;20275;-82
2021/05/04 07:46:42;;;;;;;3.60;2.80;;;9.00;81.80;;;;;;5052033;28;20200;-82
2021/05/04 07:49:11;;;;;;;3.07;2.53;;;9.10;82.30;;;;;;5053777;28;20183;-82
2021/05/04 07:51:38;;;;;;;2.50;2.03;;;9.20;82.30;;;;;;5053464;28;20196;-82
2021/05/04 07:54:04;;;;;;;4.30;2.23;;;9.20;81.90;;;;;;5053417;28;20191;-83
2021/05/04 07:56:30;;;;;;;2.03;1.90;;;9.30;82.20;;;;;;5053322;28;20183;-82
2021/05/04 07:58:56;;;;;;;3.20;2.80;;;9.30;82.60;;;;;;5053322;28;20172;-82
2021/05/04 08:01:21;;;;;;;2.43;2.10;;;9.40;82.60;;;;;;5051965;28;20653;-82
2021/05/04 08:03:47;;;;;;;2.90;2.10;;;9.40;82.30;;;;;;5053107;28;20200;-82
2021/05/04 08:06:12;;;;;;;2.33;1.60;;;9.40;82.50;;;;;;5051939;28;20199;-82
2021/05/04 08:08:38;;;;;;;4.47;2.40;;;9.50;81.80;;;;;;5053428;28;20539;-82
2021/05/04 08:11:04;;;;;;;1.73;1.63;;;9.40;82.00;;;;;;5053475;28;20238;-82
2021/05/04 08:13:29;;;;;;;2.27;2.07;;;9.30;81.90;;;;;;5053430;28;20227;-82
2021/05/04 08:15:55;;;;;;;2.93;2.17;;;9.40;82.40;;;;;;5053130;28;20225;-82
2021/05/04 08:18:21;;;;;;;3.30;2.20;;;9.50;82.50;;;;;;5051933;28;20210;-83
2021/05/04 08:20:49;;;;;;;2.30;2.10;;;9.70;82.80;;;;;;5053505;28;20250;-82
2021/05/04 08:23:16;;;;;;;3.27;2.73;;;9.80;83.10;;;;;;5052694;28;20214;-82
2021/05/04 08:25:43;;;;;;;2.00;1.80;;;9.70;83.40;;;;;;5051794;28;20184;-82
2021/05/04 08:28:08;;;;;;;2.27;2.13;;;9.90;82.90;;;;;;5052878;28;20196;-82
2021/05/04 08:30:34;;;;;;;2.87;1.83;;;10.40;81.10;;;;;;5053156;28;20243;-82
2021/05/04 08:33:00;;;;;;;6.50;2.40;;;10.30;82.20;;;;;;5052881;28;20187;-82
2021/05/04 08:35:26;;;;;;;3.83;2.37;;;10.10;81.50;;;;;;5053063;28;20156;-81
2021/05/04 08:37:54;;;;;;;2.83;2.40;;;9.80;81.70;;;;;;5051786;28;20179;-82
2021/05/04 08:40:20;;;;;;;2.27;2.07;;;9.90;82.10;;;;;;5051658;28;20551;-82
2021/05/04 08:42:46;;;;;;;4.03;2.17;;;10.10;80.90;;;;;;5053055;28;20245;-82
2021/05/04 08:45:14;;;;;;;2.23;1.90;;;10.20;81.00;;;;;;5052888;28;20179;-82
2021/05/04 08:47:44;;;;;;;2.90;1.87;;;10.20;81.00;;;;;;5051479;28;20196;-81
2021/05/04 08:50:14;;;;;;;2.17;2.03;;;10.30;80.20;;;;;;5053018;28;20156;-82
2021/05/04 08:52:39;;;;;;;5.50;1.90;;;10.20;79.60;;;;;;5053501;28;20203;-82
2021/05/04 08:55:06;;;;;;;2.50;1.67;;;10.20;80.10;;;;;;5053260;28;20160;-81
2021/05/04 08:57:32;;;;;;;2.20;2.00;;;10.10;80.30;;;;;;5052601;28;20527;-82
2021/05/04 08:59:58;;;;;;;3.90;1.80;;;10.00;80.10;;;;;;5058016;28;20149;-82
2021/05/04 09:02:24;;;;;;;2.97;1.70;;;10.00;80.40;;;;;;5058483;28;20233;-82
2021/05/04 09:04:56;;;;;;;2.73;2.10;;;10.00;80.10;;;;;;5057826;28;20176;-81
2021/05/04 09:07:28;;;;;;;2.03;1.90;;;9.90;78.90;;;;;;5056647;28;20199;-81
2021/05/04 09:10:05;;;;;;;2.03;1.70;;;9.80;80.70;;;;;;5056777;28;20200;-82
2021/05/04 09:21:14;;;;;;;1.87;1.70;;;10.00;80.20;;;;;;5056087;28;20153;-81
2021/05/04 09:23:41;;;;;;;1.53;1.43;;;9.90;79.80;;;;;;5054676;28;20677;-81
2021/05/04 09:26:31;;;;;;;1.73;1.63;;;9.90;80.60;;;;;;5056535;28;20198;-82
2021/05/04 09:28:58;;;;;;;2.67;2.43;;;9.90;81.30;;;;;;5056265;28;20184;-82
2021/05/04 09:31:26;;;;;;;1.83;1.73;;;9.90;81.70;;;;;;5056083;28;20535;-82
2021/05/04 09:33:53;;;;;;;1.80;1.70;;;10.10;82.60;;;;;;5056065;28;20195;-82
2021/05/04 09:36:57;;;;;;;2.90;2.53;;;10.10;82.70;;;;;;5055938;28;20172;-82
2021/05/04 09:39:25;;;;;;;1.97;1.83;;;9.90;82.20;;;;;;5033940;28;20271;-82
2021/05/04 09:41:53;;;;;;;2.40;2.10;;;9.80;83.20;;;;;;5034104;28;20203;-82
2021/05/04 09:44:40;;;;;;;2.17;2.07;;;9.90;83.90;;;;;;5044791;28;20574;-82
2021/05/04 09:47:11;;;;;;;2.37;2.13;;;9.80;82.90;;;;;;5055668;28;20285;-81
2021/05/04 09:49:39;;;;;;;1.80;1.70;;;9.80;83.50;;;;;;5054406;28;20160;-82
2021/05/04 09:52:28;;;;;;;5.17;2.23;;;9.80;83.70;;;;;;5055740;28;20196;-82
2021/05/04 09:55:16;;;;;;;1.60;1.50;;;9.80;84.20;;;;;;5055714;28;20172;-82
2021/05/04 09:57:49;;;;;;;1.70;1.60;;;9.60;83.40;;;;;;5054340;28;20200;-83
2021/05/04 10:00:17;;;;;;;2.77;2.07;;;9.50;84.90;;;;;;5056738;28;20258;-83
2021/05/04 10:02:45;;;;;;;1.70;1.60;;;9.50;85.30;;;;;;5054173;28;20204;-82
2021/05/04 10:05:14;;;;;;;3.17;2.30;;;9.40;85.30;;;;;;5055750;28;20259;-82
2021/05/04 10:07:40;;;;;;;6.93;2.13;;;9.30;86.00;;;;;;5054159;28;20236;-82
2021/05/04 10:10:08;;;;;;;1.83;1.70;;;9.30;85.20;;;;;;5055386;28;20169;-82
2021/05/04 10:12:36;;;;;;;1.80;1.70;;;9.50;85.40;;;;;;5055472;28;20538;-82
2021/05/04 10:15:05;;;;;;;2.93;1.47;;;9.50;84.60;;;;;;5054036;28;20172;-83
2021/05/04 10:17:32;;;;;;;1.80;1.70;;;9.60;82.90;;;;;;5055385;28;20179;-82
2021/05/04 10:20:01;;;;;;;4.07;1.43;;;9.70;82.20;;;;;;5055473;28;20176;-82
2021/05/04 10:22:27;;;;;;;1.50;1.40;;;9.80;83.00;;;;;;5053973;28;20179;-82
2021/05/04 10:24:53;;;;;;;1.40;1.30;;;9.80;80.90;;;;;;5055393;28;20243;-82
2021/05/04 10:27:20;;;;;;;2.03;1.57;;;9.80;82.00;;;;;;5055074;28;20196;-82
2021/05/04 10:29:50;;;;;;;2.37;1.93;;;10.00;80.80;;;;;;5055198;28;20543;-83
2021/05/04 10:32:16;;;;;;;1.70;1.60;;;10.20;82.20;;;;;;5055000;28;20175;-82
2021/05/04 10:34:42;;;;;;;1.80;1.43;;;10.50;81.80;;;;;;5055313;28;20164;-82
2021/05/04 10:37:13;;;;;;;2.40;1.93;;;10.60;81.20;;;;;;5055043;28;20222;-83
2021/05/04 10:39:43;;;;;;;1.77;1.50;;;10.90;80.50;;;;;;5055181;28;20180;-83
2021/05/04 10:42:16;;;;;;;6.23;1.40;;;11.10;79.40;;;;;;5053600;28;20218;-83
2021/05/04 10:44:54;;;;;;;2.60;1.80;;;11.30;79.00;;;;;;5053524;28;20191;-82
2021/05/04 10:47:49;;;;;;;2.00;1.87;;;11.60;79.50;;;;;;5054784;28;20196;-82
2021/05/04 10:50:42;;;;;;;4.43;1.90;;;11.60;78.50;;;;;;5054658;28;20176;-82
2021/05/04 10:53:08;;;;;;;2.20;1.33;;;12.10;78.80;;;;;;5054489;28;20286;-83
2021/05/04 10:55:52;;;;;;;3.33;1.63;;;12.10;77.40;;;;;;5053236;28;20191;-83
2021/05/04 10:58:19;;;;;;;2.27;1.60;;;11.90;76.40;;;;;;5054586;28;20176;-83
2021/05/04 11:01:03;;;;;;;4.90;2.00;;;11.70;77.00;;;;;;5053183;28;20239;-83
2021/05/04 11:03:29;;;;;;;6.93;1.90;;;11.50;76.80;;;;;;5053098;28;20253;-83
2021/05/04 11:05:55;;;;;;;2.40;1.67;;;11.40;76.10;;;;;;5054333;28;20649;-83
2021/05/04 11:08:21;;;;;;;2.27;2.07;;;11.50;77.00;;;;;;5053091;28;20744;-83
2021/05/04 11:11:22;;;;;;;3.87;1.70;;;11.60;76.30;;;;;;5054550;28;20195;-83
2021/05/04 11:13:53;;;;;;;2.00;1.80;;;11.60;76.80;;;;;;5031686;28;20689;-83
2021/05/04 11:16:31;;;;;;;2.47;2.00;;;11.60;77.60;;;;;;5054204;28;20168;-83
2021/05/04 11:19:05;;;;;;;2.30;2.10;;;11.60;77.00;;;;;;5054475;28;20198;-83
2021/05/04 11:21:42;;;;;;;3.40;2.63;;;11.30;77.70;;;;;;5053759;28;20525;-83
2021/05/04 11:24:09;;;;;;;6.07;3.23;;;11.10;78.30;;;;;;5053981;28;20208;-83
2021/05/04 11:26:53;;;;;;;9.60;3.27;;;10.90;80.20;;;;;;5054259;28;20609;-83
2021/05/04 11:29:39;;;;;;;5.90;3.33;;;10.70;81.70;;;;;;5052721;28;20192;-83
2021/05/04 11:32:27;;;;;;;5.47;3.27;;;10.60;82.20;;;;;;5052644;28;20201;-83
2021/05/04 11:35:11;;;;;;;8.37;3.70;;;10.50;82.50;;;;;;5054122;28;20236;-82
2021/05/04 11:37:40;;;;;;;3.93;2.60;;;10.50;82.50;;;;;;5052405;28;20168;-83
2021/05/04 11:40:17;;;;;;;8.60;4.30;;;10.50;83.20;;;;;;5053989;28;20171;-83
2021/05/04 11:42:54;;;;;;;3.67;2.43;;;10.50;83.20;;;;;;5053442;28;20195;-83
2021/05/04 11:45:30;;;;;;;5.77;3.00;;;10.30;83.10;;;;;;5053654;28;20164;-83
2021/05/04 11:48:04;;;;;;;10.70;3.10;;;10.30;84.30;;;;;;5052197;28;20195;-85
2021/05/04 11:50:35;;;;;;;6.33;1.50;;;9.40;81.00;;;;;;5053662;28;20167;-85
2021/05/04 11:53:09;;;;;;;2.33;1.93;;;8.00;84.70;;;;;;5052102;28;20692;-84
2021/05/04 11:55:40;;;;;;;7.33;1.80;;;8.00;86.10;;;;;;5052103;28;20261;-85
2021/05/04 11:58:13;;;;;;;7.17;2.13;;;8.30;86.50;;;;;;5052594;28;20176;-84
2021/05/04 12:00:39;;;;;;;6.40;2.10;;;8.60;87.30;;;;;;5053264;28;20666;-85
2021/05/04 12:03:18;;;;;;;6.93;1.40;;;8.80;87.90;;;;;;5053267;28;20192;-85
2021/05/04 12:05:45;;;;;;;3.03;1.33;;;8.90;88.20;;;;;;5053327;28;20156;-84
2021/05/04 12:08:12;;;;;;;2.90;1.23;;;9.00;87.40;;;;;;5053284;28;20551;-84
2021/05/04 12:10:38;;;;;;;2.53;1.60;;;9.00;88.10;;;;;;5053174;28;20175;-84
2021/05/04 12:13:09;;;;;;;3.03;1.60;;;9.10;88.40;;;;;;5051900;28;20196;-84
2021/05/04 12:15:37;;;;;;;3.10;1.80;;;9.20;88.40;;;;;;5051745;28;20561;-84
2021/05/04 12:18:08;;;;;;;6.20;3.00;;;9.30;88.30;;;;;;5052253;28;20585;-85
2021/05/04 12:20:37;;;;;;;5.77;2.17;;;9.30;87.70;;;;;;5053026;28;20176;-84
2021/05/04 12:23:06;;;;;;;8.37;2.23;;;9.20;85.60;;;;;;5051523;28;20263;-84
2021/05/04 12:25:52;;;;;;;3.93;2.43;;;9.10;86.40;;;;;;5053122;28;20641;-85
2021/05/04 12:28:22;;;;;;;4.77;2.47;;;9.00;87.70;;;;;;5052814;28;20711;-85
2021/05/04 12:30:48;;;;;;;4.07;2.17;;;9.00;88.20;;;;;;5051810;28;20172;-85
2021/05/04 12:33:17;;;;;;;4.70;2.77;;;9.00;88.80;;;;;;5052973;28;20283;-85
2021/05/04 12:36:04;;;;;;;1.97;1.83;;;9.10;88.90;;;;;;5057125;28;20217;-85
2021/05/04 12:38:52;;;;;;;5.73;1.93;;;9.30;88.00;;;;;;5057066;28;20180;-85
2021/05/04 12:41:20;;;;;;;3.10;1.80;;;9.20;87.90;;;;;;5057121;28;20157;-85
2021/05/04 12:46:45;;;;;;;3.73;2.33;;;9.20;88.50;;;;;;5057307;28;20188;-85
2021/05/04 12:49:12;;;;;;;3.70;1.90;;;9.10;88.90;;;;;;5055754;28;20179;-85
2021/05/04 12:51:40;;;;;;;9.87;2.30;;;9.20;88.40;;;;;;5055664;28;20172;-85
2021/05/04 12:54:15;;;;;;;4.50;2.30;;;9.20;89.30;;;;;;5056825;28;20188;-85
2021/05/04 12:56:41;;;;;;;6.13;2.40;;;9.30;89.40;;;;;;5056427;28;20289;-85
2021/05/04 12:59:08;;;;;;;4.83;2.50;;;9.40;88.70;;;;;;5056820;28;20168;-85
2021/05/04 13:01:53;;;;;;;5.27;2.67;;;9.50;89.10;;;;;;5056964;28;20176;-85
2021/05/04 13:04:59;;;;;;;2.63;2.43;;;9.40;89.20;;;;;;5056604;28;20240;-85
2021/05/04 13:07:38;;;;;;;4.20;2.50;;;9.50;89.70;;;;;;5056268;28;20253;-85